createdAt,value
2023-08-04T00:02:21.754Z,2.20
2023-08-04T00:07:23.685Z,3.03
2023-08-04T00:12:26.951Z,2.60
2023-08-04T00:17:30.977Z,2.20
2023-08-04T00:22:36.024Z,2.50
2023-08-04T00:27:40.094Z,2.45
2023-08-04T00:32:44.167Z,2.20
2023-08-04T00:37:45.906Z,2.35
2023-08-04T00:42:50.621Z,2.33
2023-08-04T00:47:55.599Z,2.15
2023-08-04T00:52:59.887Z,1.95
2023-08-04T00:58:01.685Z,1.90
2023-08-04T01:03:06.503Z,2.50
2023-08-04T01:08:18.628Z,2.05
2023-08-04T01:13:23.210Z,1.98
2023-08-04T01:18:28.025Z,2.40
2023-08-04T01:23:29.803Z,2.25
2023-08-04T01:28:34.815Z,2.20
2023-08-04T01:33:36.664Z,2.63
2023-08-04T01:38:38.417Z,2.00
2023-08-04T01:43:40.110Z,1.80
2023-08-04T01:48:41.836Z,2.03
2023-08-04T01:53:43.536Z,2.25
2023-08-04T01:58:50.072Z,2.17
2023-08-04T02:03:54.061Z,2.28
2023-08-04T02:08:55.822Z,1.90
2023-08-04T02:14:01.364Z,2.13
2023-08-04T02:19:10.602Z,2.15
2023-08-04T02:24:14.458Z,2.47
2023-08-04T02:29:18.438Z,2.47
2023-08-04T02:34:23.636Z,2.25
2023-08-04T02:39:27.656Z,2.35
2023-08-04T02:44:31.597Z,2.60
2023-08-04T02:49:39.962Z,2.88
2023-08-04T02:54:43.589Z,2.08
2023-08-04T02:59:45.344Z,2.17
2023-08-04T03:04:54.166Z,1.90
2023-08-04T03:09:58.240Z,2.25
2023-08-04T03:15:05.669Z,2.55
2023-08-04T03:20:10.509Z,2.40
2023-08-04T03:25:18.217Z,2.28
2023-08-04T03:30:19.953Z,2.55
2023-08-04T03:35:21.793Z,2.05
2023-08-04T03:40:25.890Z,2.20
2023-08-04T03:45:27.702Z,2.17
2023-08-04T03:50:29.508Z,1.90
2023-08-04T03:55:31.375Z,1.92
2023-08-04T04:00:35.351Z,2.13
2023-08-04T04:05:39.824Z,1.90
2023-08-04T04:10:43.884Z,2.35
2023-08-04T04:15:45.985Z,2.28
2023-08-04T04:20:47.790Z,1.95
2023-08-04T04:25:51.260Z,1.90
2023-08-04T04:30:52.994Z,2.17
2023-08-04T04:35:54.743Z,1.83
2023-08-04T04:41:02.270Z,2.00
2023-08-04T04:46:04.696Z,2.03
2023-08-04T04:51:11.198Z,2.03
2023-08-04T04:56:15.415Z,2.03
2023-08-04T05:01:17.238Z,1.98
2023-08-04T05:06:18.958Z,1.80
2023-08-04T05:11:23.153Z,2.13
2023-08-04T05:16:25.237Z,2.00
2023-08-04T05:21:27.073Z,1.42
2023-08-04T05:26:31.517Z,2.05
2023-08-04T05:31:33.926Z,1.48
2023-08-04T05:36:35.648Z,1.30
2023-08-04T05:41:40.424Z,2.03
2023-08-04T05:46:44.447Z,1.95
2023-08-04T05:51:47.359Z,1.48
2023-08-04T05:56:49.519Z,1.52
2023-08-04T06:01:54.512Z,1.30
2023-08-04T06:06:58.623Z,1.15
2023-08-04T06:12:00.403Z,1.30
2023-08-04T06:17:06.986Z,1.00
2023-08-04T06:22:11.517Z,1.38
2023-08-04T06:27:13.376Z,1.00
2023-08-04T06:32:15.083Z,1.30
2023-08-04T06:37:21.151Z,1.10
2023-08-04T06:42:25.175Z,1.17
2023-08-04T06:47:26.993Z,0.93
2023-08-04T06:52:28.907Z,1.38
2023-08-04T06:57:30.677Z,1.15
2023-08-04T07:02:33.075Z,1.40
2023-08-04T07:07:35.057Z,1.42
2023-08-04T07:12:41.296Z,1.25
2023-08-04T07:17:43.483Z,1.40
2023-08-04T07:22:45.353Z,1.60
2023-08-04T07:27:51.636Z,1.73
2023-08-04T07:32:55.741Z,1.50
2023-08-04T07:37:59.838Z,1.63
2023-08-04T07:43:06.044Z,1.17
2023-08-04T07:48:08.079Z,1.45
2023-08-04T07:53:10.034Z,2.13
2023-08-04T07:58:14.111Z,2.00
2023-08-04T08:03:18.046Z,1.73
2023-08-04T08:08:22.082Z,1.73
2023-08-04T08:13:30.089Z,1.63
2023-08-04T08:18:31.908Z,1.52
2023-08-04T08:23:34.134Z,1.33
2023-08-04T08:28:38.735Z,1.63
2023-08-04T08:33:40.504Z,1.60
2023-08-04T08:38:42.452Z,1.90
2023-08-04T08:43:48.860Z,1.90
2023-08-04T08:48:51.131Z,1.75
2023-08-04T08:53:55.881Z,1.80
2023-08-04T08:58:59.907Z,1.77
2023-08-04T09:04:12.478Z,2.10
2023-08-04T09:09:14.593Z,1.40
2023-08-04T09:14:19.253Z,2.97
2023-08-04T09:19:25.085Z,1.80
2023-08-04T09:24:27.136Z,1.70
2023-08-04T09:29:33.488Z,2.10
2023-08-04T09:34:35.261Z,2.08
2023-08-04T09:39:47.722Z,1.83
2023-08-04T09:44:56.933Z,1.80
2023-08-04T09:49:59.847Z,1.70
2023-08-04T09:55:09.937Z,2.00
2023-08-04T10:00:17.583Z,2.10
2023-08-04T10:05:24.928Z,1.48
2023-08-04T10:10:26.800Z,1.35
2023-08-04T10:15:28.937Z,1.50
2023-08-04T10:20:37.030Z,1.40
2023-08-04T10:25:38.925Z,1.23
2023-08-04T10:36:10.227Z,1.45
2023-08-04T10:41:15.941Z,1.50
2023-08-04T10:46:18.121Z,1.35
2023-08-04T10:51:26.681Z,1.63
2023-08-04T10:56:40.912Z,1.15
2023-08-04T11:01:47.959Z,1.70
2023-08-04T11:06:52.510Z,1.23
2023-08-04T11:11:59.978Z,1.10
2023-08-04T11:17:03.288Z,0.95
2023-08-04T11:22:16.559Z,1.10
2023-08-04T11:27:23.122Z,1.60
2023-08-04T11:32:26.286Z,1.40
2023-08-04T11:37:28.336Z,1.48
2023-08-04T11:42:35.963Z,1.23
2023-08-04T11:47:42.206Z,1.52
2023-08-04T11:52:47.487Z,1.67
2023-08-04T11:57:49.931Z,1.33
2023-08-04T12:03:02.349Z,1.50
2023-08-04T12:08:13.315Z,1.40
2023-08-04T12:13:36.941Z,1.88
2023-08-04T12:18:40.379Z,1.27
2023-08-04T12:23:51.443Z,1.80
2023-08-04T12:28:53.379Z,1.15
2023-08-04T12:34:00.501Z,1.27
2023-08-04T12:39:06.123Z,1.10
2023-08-04T12:44:08.394Z,1.45
2023-08-04T12:49:10.362Z,1.30
2023-08-04T12:54:12.276Z,1.20
2023-08-04T12:59:16.445Z,1.15
2023-08-04T13:04:23.019Z,1.05
2023-08-04T13:09:24.951Z,0.88
2023-08-04T13:14:28.721Z,1.00
2023-08-04T13:19:34.872Z,1.20
2023-08-04T13:24:36.710Z,0.90
2023-08-04T13:29:39.532Z,1.17
2023-08-04T13:34:41.464Z,0.82
2023-08-04T13:39:43.319Z,1.00
2023-08-04T13:44:47.637Z,1.08
2023-08-04T13:49:49.422Z,0.98
2023-08-04T13:54:53.440Z,1.10
2023-08-04T13:59:57.660Z,1.15
2023-08-04T14:05:02.348Z,1.35
2023-08-04T14:10:08.377Z,1.67
2023-08-04T14:15:10.444Z,1.40
2023-08-04T14:20:15.610Z,1.60
2023-08-04T14:25:17.674Z,1.58
2023-08-04T14:30:19.491Z,1.30
2023-08-04T14:35:21.303Z,1.60
2023-08-04T14:40:25.284Z,1.42
2023-08-04T14:45:27.009Z,1.30
2023-08-04T14:50:28.812Z,1.65
2023-08-04T14:55:30.547Z,1.33
2023-08-04T15:00:37.333Z,1.30
2023-08-04T15:05:39.261Z,1.10
2023-08-04T15:10:43.595Z,1.45
2023-08-04T15:15:48.341Z,1.73
2023-08-04T15:20:52.717Z,1.50
2023-08-04T15:25:55.907Z,1.60
2023-08-04T15:31:09.497Z,1.42
2023-08-04T15:36:15.765Z,1.70
2023-08-04T15:41:17.505Z,1.65
2023-08-04T15:46:19.553Z,1.38
2023-08-04T15:51:21.625Z,2.00
2023-08-04T15:56:26.110Z,1.35
2023-08-04T16:01:27.880Z,1.35
2023-08-04T16:06:29.674Z,1.60
2023-08-04T16:11:34.630Z,1.92
2023-08-04T16:16:40.962Z,1.80
2023-08-04T16:21:44.983Z,1.75
2023-08-04T16:26:49.471Z,2.15
2023-08-04T16:31:51.541Z,1.70
2023-08-04T16:36:53.365Z,2.05
2023-08-04T16:41:57.331Z,1.58
2023-08-04T16:47:03.988Z,1.63
2023-08-04T16:52:06.313Z,1.92
2023-08-04T16:57:08.075Z,1.70
2023-08-04T17:02:09.853Z,1.85
2023-08-04T17:07:14.530Z,2.25
2023-08-04T17:12:16.428Z,2.22
2023-08-04T17:17:18.853Z,1.70
2023-08-04T17:22:23.048Z,2.38
2023-08-04T17:27:25.168Z,2.03
2023-08-04T17:32:31.344Z,2.13
2023-08-04T17:37:37.562Z,2.15
2023-08-04T17:42:41.460Z,2.42
2023-08-04T17:47:45.239Z,2.40
2023-08-04T17:52:47.029Z,2.03
2023-08-04T17:57:51.168Z,2.15
2023-08-04T18:02:55.358Z,2.20
2023-08-04T18:07:57.168Z,2.60
2023-08-04T18:13:03.893Z,2.70
2023-08-04T18:18:07.792Z,2.63
2023-08-04T18:23:11.981Z,2.70
2023-08-04T18:28:13.663Z,3.00
2023-08-04T18:33:15.425Z,2.10
2023-08-04T18:38:22.627Z,2.70
2023-08-04T18:43:26.852Z,2.05
2023-08-04T18:48:31.439Z,2.00
2023-08-04T18:53:39.393Z,1.98
2023-08-04T18:58:41.171Z,2.00
2023-08-04T19:03:47.468Z,1.70
2023-08-04T19:08:51.510Z,1.83
2023-08-04T19:13:55.449Z,2.25
2023-08-04T19:18:57.577Z,2.22
2023-08-04T19:23:59.407Z,6.15
2023-08-04T19:29:01.667Z,2.72
2023-08-04T19:34:03.372Z,2.70
2023-08-04T19:39:05.431Z,2.10
2023-08-04T19:44:07.206Z,2.85
2023-08-04T19:49:11.810Z,2.00
2023-08-04T19:54:13.579Z,2.30
2023-08-04T19:59:19.758Z,1.70
2023-08-04T20:04:23.691Z,2.53
2023-08-04T20:09:27.791Z,1.88
2023-08-04T20:14:29.503Z,2.28
2023-08-04T20:19:36.118Z,2.80
2023-08-04T20:24:37.925Z,2.00
2023-08-04T20:29:44.058Z,2.05
2023-08-04T20:34:48.534Z,3.10
2023-08-04T20:39:53.394Z,2.13
2023-08-04T20:44:55.364Z,2.10
2023-08-04T20:49:57.339Z,2.42
2023-08-04T20:55:03.929Z,1.73
2023-08-04T21:00:06.543Z,1.80
2023-08-04T21:05:10.510Z,2.33
2023-08-04T21:10:12.211Z,1.90
2023-08-04T21:15:13.946Z,2.47
2023-08-04T21:20:17.376Z,2.13
2023-08-04T21:25:19.359Z,2.53
2023-08-04T21:30:22.870Z,2.22
2023-08-04T21:35:24.645Z,2.28
2023-08-04T21:40:26.709Z,2.00
2023-08-04T21:45:28.688Z,3.00
2023-08-04T21:50:33.756Z,2.53
2023-08-04T21:55:35.464Z,2.50
2023-08-04T22:00:37.227Z,2.40
2023-08-04T22:05:41.282Z,3.13
2023-08-04T22:10:45.266Z,2.90
2023-08-04T22:15:47.129Z,2.88
2023-08-04T22:20:59.684Z,2.75
2023-08-04T22:26:03.126Z,2.80
2023-08-04T22:31:05.472Z,2.55
2023-08-04T22:36:07.352Z,2.95
2023-08-04T22:41:09.260Z,2.60
2023-08-04T22:46:11.582Z,2.70
2023-08-04T22:51:18.657Z,2.92
2023-08-04T22:56:25.732Z,2.53
2023-08-04T23:01:27.460Z,2.80
2023-08-04T23:06:31.710Z,2.72
2023-08-04T23:11:33.413Z,2.70
2023-08-04T23:16:35.538Z,2.80
2023-08-04T23:21:37.353Z,3.42
2023-08-04T23:26:39.062Z,2.92
2023-08-04T23:31:43.918Z,3.30
2023-08-04T23:36:48.715Z,2.40
2023-08-04T23:41:51.096Z,2.83
2023-08-04T23:46:55.230Z,3.20
2023-08-04T23:52:01.523Z,2.80
2023-08-04T23:57:03.473Z,3.05
